sensor_id;sensor_type;location;lat;lon;timestamp;temperature;humidity
20977;DHT22;10647;51.016;3.720;2023-04-08T00:00:08;11.40;99.90
20977;DHT22;10647;51.016;3.720;2023-04-08T00:02:36;11.40;99.90
20977;DHT22;10647;51.016;3.720;2023-04-08T00:05:04;11.40;99.90
20977;DHT22;10647;51.016;3.720;2023-04-08T00:07:31;11.30;99.90
20977;DHT22;10647;51.016;3.720;2023-04-08T00:09:59;11.30;99.90
20977;DHT22;10647;51.016;3.720;2023-04-08T00:12:26;11.30;99.90
20977;DHT22;10647;51.016;3.720;2023-04-08T00:14:55;11.30;99.90
20977;DHT22;10647;51.016;3.720;2023-04-08T00:17:23;11.20;99.90
20977;DHT22;10647;51.016;3.720;2023-04-08T00:19:51;11.20;99.90
20977;DHT22;10647;51.016;3.720;2023-04-08T00:22:18;11.20;99.90
20977;DHT22;10647;51.016;3.720;2023-04-08T00:24:50;11.30;99.90
20977;DHT22;10647;51.016;3.720;2023-04-08T00:27:18;11.30;99.90
20977;DHT22;10647;51.016;3.720;2023-04-08T00:29:45;11.30;99.90
20977;DHT22;10647;51.016;3.720;2023-04-08T00:32:13;11.30;99.90
20977;DHT22;10647;51.016;3.720;2023-04-08T00:34:41;11.20;99.90
20977;DHT22;10647;51.016;3.720;2023-04-08T00:37:11;11.20;99.90
20977;DHT22;10647;51.016;3.720;2023-04-08T00:39:38;11.20;99.90
20977;DHT22;10647;51.016;3.720;2023-04-08T00:42:06;11.20;99.90
20977;DHT22;10647;51.016;3.720;2023-04-08T00:44:33;11.10;99.90
20977;DHT22;10647;51.016;3.720;2023-04-08T00:47:02;11.20;99.90
20977;DHT22;10647;51.016;3.720;2023-04-08T00:49:31;11.20;99.90
20977;DHT22;10647;51.016;3.720;2023-04-08T00:51:59;11.20;99.90
20977;DHT22;10647;51.016;3.720;2023-04-08T00:54:26;11.20;99.90
20977;DHT22;10647;51.016;3.720;2023-04-08T00:56:54;11.20;99.90
20977;DHT22;10647;51.016;3.720;2023-04-08T00:59:22;11.20;99.90
20977;DHT22;10647;51.016;3.720;2023-04-08T01:04:43;11.20;99.90
20977;DHT22;10647;51.016;3.720;2023-04-08T01:07:20;11.20;99.90
20977;DHT22;10647;51.016;3.720;2023-04-08T01:09:56;11.20;99.90
20977;DHT22;10647;51.016;3.720;2023-04-08T01:12:47;11.20;99.90
20977;DHT22;10647;51.016;3.720;2023-04-08T01:15:13;11.20;99.90
20977;DHT22;10647;51.016;3.720;2023-04-08T01:17:42;11.20;99.90
20977;DHT22;10647;51.016;3.720;2023-04-08T01:20:13;11.20;99.90
20977;DHT22;10647;51.016;3.720;2023-04-08T01:25:52;11.20;99.90
20977;DHT22;10647;51.016;3.720;2023-04-08T01:28:18;11.20;99.90
20977;DHT22;10647;51.016;3.720;2023-04-08T01:30:47;11.10;99.90
20977;DHT22;10647;51.016;3.720;2023-04-08T01:33:17;11.10;99.90
20977;DHT22;10647;51.016;3.720;2023-04-08T01:35:45;11.10;99.90
20977;DHT22;10647;51.016;3.720;2023-04-08T01:38:18;11.10;99.90
20977;DHT22;10647;51.016;3.720;2023-04-08T01:43:42;11.20;99.90
20977;DHT22;10647;51.016;3.720;2023-04-08T01:46:16;11.20;99.90
20977;DHT22;10647;51.016;3.720;2023-04-08T01:48:44;11.20;99.90
20977;DHT22;10647;51.016;3.720;2023-04-08T01:51:12;11.20;99.90
20977;DHT22;10647;51.016;3.720;2023-04-08T01:53:39;11.20;99.90
20977;DHT22;10647;51.016;3.720;2023-04-08T01:59:00;11.10;99.90
20977;DHT22;10647;51.016;3.720;2023-04-08T02:01:29;11.20;99.90
20977;DHT22;10647;51.016;3.720;2023-04-08T02:03:57;11.20;99.90
20977;DHT22;10647;51.016;3.720;2023-04-08T02:06:28;11.20;99.90
20977;DHT22;10647;51.016;3.720;2023-04-08T02:08:59;11.20;99.90
20977;DHT22;10647;51.016;3.720;2023-04-08T02:11:27;11.20;99.90
20977;DHT22;10647;51.016;3.720;2023-04-08T02:13:55;11.20;99.90
20977;DHT22;10647;51.016;3.720;2023-04-08T02:16:38;11.20;99.90
20977;DHT22;10647;51.016;3.720;2023-04-08T02:19:26;11.20;99.90
20977;DHT22;10647;51.016;3.720;2023-04-08T02:21:56;11.20;99.90
20977;DHT22;10647;51.016;3.720;2023-04-08T02:24:25;11.20;99.90
20977;DHT22;10647;51.016;3.720;2023-04-08T02:26:54;11.20;99.90
20977;DHT22;10647;51.016;3.720;2023-04-08T02:29:23;11.20;99.90
20977;DHT22;10647;51.016;3.720;2023-04-08T02:31:55;11.10;99.90
20977;DHT22;10647;51.016;3.720;2023-04-08T02:37:13;11.20;99.90
20977;DHT22;10647;51.016;3.720;2023-04-08T02:39:41;11.20;99.90
20977;DHT22;10647;51.016;3.720;2023-04-08T02:42:09;11.10;99.90
20977;DHT22;10647;51.016;3.720;2023-04-08T02:44:38;11.20;99.90
20977;DHT22;10647;51.016;3.720;2023-04-08T02:47:25;11.20;99.90
20977;DHT22;10647;51.016;3.720;2023-04-08T02:50:11;11.20;99.90
20977;DHT22;10647;51.016;3.720;2023-04-08T02:52:39;11.20;99.90
20977;DHT22;10647;51.016;3.720;2023-04-08T02:55:07;11.20;99.90
20977;DHT22;10647;51.016;3.720;2023-04-08T03:00:28;11.20;99.90
20977;DHT22;10647;51.016;3.720;2023-04-08T03:02:56;11.20;99.90
20977;DHT22;10647;51.016;3.720;2023-04-08T03:05:24;11.10;99.90
20977;DHT22;10647;51.016;3.720;2023-04-08T03:07:52;11.20;99.90
20977;DHT22;10647;51.016;3.720;2023-04-08T03:10:20;11.20;99.90
20977;DHT22;10647;51.016;3.720;2023-04-08T03:12:53;11.20;99.90
20977;DHT22;10647;51.016;3.720;2023-04-08T03:15:22;11.20;99.90
20977;DHT22;10647;51.016;3.720;2023-04-08T03:17:50;11.20;99.90
20977;DHT22;10647;51.016;3.720;2023-04-08T03:20:18;11.30;99.90
20977;DHT22;10647;51.016;3.720;2023-04-08T03:22:49;11.20;99.90
20977;DHT22;10647;51.016;3.720;2023-04-08T03:25:19;11.20;99.90
20977;DHT22;10647;51.016;3.720;2023-04-08T03:27:46;11.20;99.90
20977;DHT22;10647;51.016;3.720;2023-04-08T03:30:20;11.20;99.90
20977;DHT22;10647;51.016;3.720;2023-04-08T03:32:47;11.30;99.90
20977;DHT22;10647;51.016;3.720;2023-04-08T03:35:15;11.30;99.90
20977;DHT22;10647;51.016;3.720;2023-04-08T03:37:42;11.30;99.90
20977;DHT22;10647;51.016;3.720;2023-04-08T03:40:10;11.30;99.90
20977;DHT22;10647;51.016;3.720;2023-04-08T03:42:38;11.20;99.90
20977;DHT22;10647;51.016;3.720;2023-04-08T03:45:06;11.20;99.90
20977;DHT22;10647;51.016;3.720;2023-04-08T03:47:34;11.20;99.90
20977;DHT22;10647;51.016;3.720;2023-04-08T03:50:01;11.30;99.90
20977;DHT22;10647;51.016;3.720;2023-04-08T03:52:29;11.20;99.90
20977;DHT22;10647;51.016;3.720;2023-04-08T03:54:56;11.30;99.90
20977;DHT22;10647;51.016;3.720;2023-04-08T03:57:24;11.30;99.90
20977;DHT22;10647;51.016;3.720;2023-04-08T03:59:51;11.30;99.90
20977;DHT22;10647;51.016;3.720;2023-04-08T04:02:19;11.30;99.90
20977;DHT22;10647;51.016;3.720;2023-04-08T04:04:47;11.30;99.90
20977;DHT22;10647;51.016;3.720;2023-04-08T04:07:15;11.30;99.90
20977;DHT22;10647;51.016;3.720;2023-04-08T04:09:42;11.40;99.90
20977;DHT22;10647;51.016;3.720;2023-04-08T04:12:10;11.30;99.90
20977;DHT22;10647;51.016;3.720;2023-04-08T04:14:37;11.30;99.90
20977;DHT22;10647;51.016;3.720;2023-04-08T04:17:05;11.30;99.90
20977;DHT22;10647;51.016;3.720;2023-04-08T04:19:32;11.30;99.90
20977;DHT22;10647;51.016;3.720;2023-04-08T04:22:00;11.40;99.90
20977;DHT22;10647;51.016;3.720;2023-04-08T04:24:28;11.40;99.90
20977;DHT22;10647;51.016;3.720;2023-04-08T04:26:56;11.40;99.90
20977;DHT22;10647;51.016;3.720;2023-04-08T04:29:23;11.30;99.90
20977;DHT22;10647;51.016;3.720;2023-04-08T04:31:51;11.20;99.90
20977;DHT22;10647;51.016;3.720;2023-04-08T04:34:18;11.20;99.90
20977;DHT22;10647;51.016;3.720;2023-04-08T04:36:46;11.10;99.90
20977;DHT22;10647;51.016;3.720;2023-04-08T04:39:13;11.10;99.90
20977;DHT22;10647;51.016;3.720;2023-04-08T04:41:41;11.10;99.90
20977;DHT22;10647;51.016;3.720;2023-04-08T04:44:09;11.10;99.90
20977;DHT22;10647;51.016;3.720;2023-04-08T04:46:37;11.10;99.90
20977;DHT22;10647;51.016;3.720;2023-04-08T04:49:05;11.10;99.90
20977;DHT22;10647;51.016;3.720;2023-04-08T04:51:52;10.90;99.90
20977;DHT22;10647;51.016;3.720;2023-04-08T04:54:19;11.10;99.90
20977;DHT22;10647;51.016;3.720;2023-04-08T04:56:47;11.10;99.90
20977;DHT22;10647;51.016;3.720;2023-04-08T04:59:14;11.00;99.90
20977;DHT22;10647;51.016;3.720;2023-04-08T05:01:42;11.00;99.90
20977;DHT22;10647;51.016;3.720;2023-04-08T05:04:15;11.00;99.90
20977;DHT22;10647;51.016;3.720;2023-04-08T05:06:43;11.00;99.90
20977;DHT22;10647;51.016;3.720;2023-04-08T05:09:10;11.00;99.90
20977;DHT22;10647;51.016;3.720;2023-04-08T05:11:38;11.00;99.90
20977;DHT22;10647;51.016;3.720;2023-04-08T05:14:08;11.00;99.90
20977;DHT22;10647;51.016;3.720;2023-04-08T05:16:36;11.00;99.90
20977;DHT22;10647;51.016;3.720;2023-04-08T05:19:05;11.00;99.90
20977;DHT22;10647;51.016;3.720;2023-04-08T05:21:33;11.00;99.90
20977;DHT22;10647;51.016;3.720;2023-04-08T05:24:06;11.00;99.90
20977;DHT22;10647;51.016;3.720;2023-04-08T05:26:33;11.10;99.90
20977;DHT22;10647;51.016;3.720;2023-04-08T05:29:03;11.10;99.90
20977;DHT22;10647;51.016;3.720;2023-04-08T05:31:30;11.10;99.90
20977;DHT22;10647;51.016;3.720;2023-04-08T05:33:58;11.10;99.90
20977;DHT22;10647;51.016;3.720;2023-04-08T05:36:25;11.20;99.90
20977;DHT22;10647;51.016;3.720;2023-04-08T05:38:53;11.20;99.90
20977;DHT22;10647;51.016;3.720;2023-04-08T05:41:21;11.30;99.90
20977;DHT22;10647;51.016;3.720;2023-04-08T05:43:51;11.20;99.90
20977;DHT22;10647;51.016;3.720;2023-04-08T05:46:18;11.30;99.90
20977;DHT22;10647;51.016;3.720;2023-04-08T05:48:46;11.30;99.90
20977;DHT22;10647;51.016;3.720;2023-04-08T05:51:14;11.40;99.90
20977;DHT22;10647;51.016;3.720;2023-04-08T05:53:45;11.30;99.90
20977;DHT22;10647;51.016;3.720;2023-04-08T05:56:12;11.40;99.90
20977;DHT22;10647;51.016;3.720;2023-04-08T05:58:40;11.30;99.90
20977;DHT22;10647;51.016;3.720;2023-04-08T06:01:07;11.40;99.90
20977;DHT22;10647;51.016;3.720;2023-04-08T06:03:35;11.40;99.90
20977;DHT22;10647;51.016;3.720;2023-04-08T06:06:02;11.50;99.90
20977;DHT22;10647;51.016;3.720;2023-04-08T06:08:30;11.50;99.90
20977;DHT22;10647;51.016;3.720;2023-04-08T06:10:57;11.60;99.90
20977;DHT22;10647;51.016;3.720;2023-04-08T06:13:25;11.60;99.90
20977;DHT22;10647;51.016;3.720;2023-04-08T06:15:52;11.70;99.90
20977;DHT22;10647;51.016;3.720;2023-04-08T06:18:20;11.70;99.90
20977;DHT22;10647;51.016;3.720;2023-04-08T06:20:47;11.70;99.90
20977;DHT22;10647;51.016;3.720;2023-04-08T06:23:16;11.70;99.90
20977;DHT22;10647;51.016;3.720;2023-04-08T06:25:43;11.90;99.90
20977;DHT22;10647;51.016;3.720;2023-04-08T06:28:11;11.90;99.90
20977;DHT22;10647;51.016;3.720;2023-04-08T06:30:40;12.00;99.90
20977;DHT22;10647;51.016;3.720;2023-04-08T06:33:08;12.10;99.90
20977;DHT22;10647;51.016;3.720;2023-04-08T06:35:36;12.20;99.90
20977;DHT22;10647;51.016;3.720;2023-04-08T06:38:03;12.30;99.90
20977;DHT22;10647;51.016;3.720;2023-04-08T06:40:31;12.30;99.90
20977;DHT22;10647;51.016;3.720;2023-04-08T06:42:58;12.40;99.90
20977;DHT22;10647;51.016;3.720;2023-04-08T06:45:26;12.50;99.90
20977;DHT22;10647;51.016;3.720;2023-04-08T06:47:54;12.50;99.90
20977;DHT22;10647;51.016;3.720;2023-04-08T06:50:22;12.50;99.90
20977;DHT22;10647;51.016;3.720;2023-04-08T06:52:49;12.50;99.90
20977;DHT22;10647;51.016;3.720;2023-04-08T06:55:17;12.50;99.90
20977;DHT22;10647;51.016;3.720;2023-04-08T06:57:44;12.40;99.90
20977;DHT22;10647;51.016;3.720;2023-04-08T07:00:12;12.40;99.90
20977;DHT22;10647;51.016;3.720;2023-04-08T07:02:59;12.40;99.90
20977;DHT22;10647;51.016;3.720;2023-04-08T07:05:29;12.40;99.90
20977;DHT22;10647;51.016;3.720;2023-04-08T07:08:01;12.40;99.90
20977;DHT22;10647;51.016;3.720;2023-04-08T07:10:29;12.40;99.90
20977;DHT22;10647;51.016;3.720;2023-04-08T07:12:57;12.50;99.90
20977;DHT22;10647;51.016;3.720;2023-04-08T07:15:24;12.50;99.90
20977;DHT22;10647;51.016;3.720;2023-04-08T07:17:53;12.60;99.90
20977;DHT22;10647;51.016;3.720;2023-04-08T07:20:24;12.80;99.90
20977;DHT22;10647;51.016;3.720;2023-04-08T07:22:51;12.90;99.90
20977;DHT22;10647;51.016;3.720;2023-04-08T07:25:19;13.00;99.90
20977;DHT22;10647;51.016;3.720;2023-04-08T07:27:46;13.00;99.90
20977;DHT22;10647;51.016;3.720;2023-04-08T07:30:14;13.10;99.90
20977;DHT22;10647;51.016;3.720;2023-04-08T07:32:41;13.10;99.90
20977;DHT22;10647;51.016;3.720;2023-04-08T07:35:09;13.10;99.90
20977;DHT22;10647;51.016;3.720;2023-04-08T07:37:36;13.20;99.90
20977;DHT22;10647;51.016;3.720;2023-04-08T07:40:05;13.30;99.90
20977;DHT22;10647;51.016;3.720;2023-04-08T07:42:32;13.30;99.90
20977;DHT22;10647;51.016;3.720;2023-04-08T07:45:00;13.30;99.90
20977;DHT22;10647;51.016;3.720;2023-04-08T07:47:27;13.30;99.90
20977;DHT22;10647;51.016;3.720;2023-04-08T07:49:55;13.40;99.90
20977;DHT22;10647;51.016;3.720;2023-04-08T07:52:22;13.60;99.90
20977;DHT22;10647;51.016;3.720;2023-04-08T07:54:50;13.70;99.90
20977;DHT22;10647;51.016;3.720;2023-04-08T07:57:18;13.90;99.90
20977;DHT22;10647;51.016;3.720;2023-04-08T07:59:45;14.20;99.90
20977;DHT22;10647;51.016;3.720;2023-04-08T08:02:13;14.40;99.90
20977;DHT22;10647;51.016;3.720;2023-04-08T08:04:41;14.50;99.90
20977;DHT22;10647;51.016;3.720;2023-04-08T08:07:08;14.30;99.90
20977;DHT22;10647;51.016;3.720;2023-04-08T08:09:35;14.30;99.90
20977;DHT22;10647;51.016;3.720;2023-04-08T08:12:03;14.20;99.90
20977;DHT22;10647;51.016;3.720;2023-04-08T08:14:37;14.00;99.90
20977;DHT22;10647;51.016;3.720;2023-04-08T08:17:04;14.00;99.90
20977;DHT22;10647;51.016;3.720;2023-04-08T08:19:32;13.90;99.90
20977;DHT22;10647;51.016;3.720;2023-04-08T08:21:59;14.00;99.90
20977;DHT22;10647;51.016;3.720;2023-04-08T08:24:27;14.10;99.90
20977;DHT22;10647;51.016;3.720;2023-04-08T08:26:54;14.30;99.90
20977;DHT22;10647;51.016;3.720;2023-04-08T08:29:23;14.20;99.90
20977;DHT22;10647;51.016;3.720;2023-04-08T08:31:51;14.30;99.90
20977;DHT22;10647;51.016;3.720;2023-04-08T08:34:19;14.50;99.90
20977;DHT22;10647;51.016;3.720;2023-04-08T08:36:48;14.70;99.90
20977;DHT22;10647;51.016;3.720;2023-04-08T08:39:16;14.80;99.90
20977;DHT22;10647;51.016;3.720;2023-04-08T08:41:43;14.90;99.90
20977;DHT22;10647;51.016;3.720;2023-04-08T08:44:12;15.10;99.90
20977;DHT22;10647;51.016;3.720;2023-04-08T08:46:44;15.30;99.90
20977;DHT22;10647;51.016;3.720;2023-04-08T08:49:35;15.70;99.90
20977;DHT22;10647;51.016;3.720;2023-04-08T08:52:03;15.90;99.90
20977;DHT22;10647;51.016;3.720;2023-04-08T08:54:32;16.10;99.90
20977;DHT22;10647;51.016;3.720;2023-04-08T08:57:01;16.30;99.90
20977;DHT22;10647;51.016;3.720;2023-04-08T08:59:29;16.10;99.90
20977;DHT22;10647;51.016;3.720;2023-04-08T09:01:56;16.20;99.90
20977;DHT22;10647;51.016;3.720;2023-04-08T09:04:25;16.30;99.90
20977;DHT22;10647;51.016;3.720;2023-04-08T09:07:11;16.40;99.90
20977;DHT22;10647;51.016;3.720;2023-04-08T09:09:58;16.50;99.90
20977;DHT22;10647;51.016;3.720;2023-04-08T09:12:27;16.60;99.90
20977;DHT22;10647;51.016;3.720;2023-04-08T09:15:07;16.60;99.90
20977;DHT22;10647;51.016;3.720;2023-04-08T09:17:37;16.70;99.90
20977;DHT22;10647;51.016;3.720;2023-04-08T09:20:12;16.70;99.90
20977;DHT22;10647;51.016;3.720;2023-04-08T09:22:58;16.90;99.90
20977;DHT22;10647;51.016;3.720;2023-04-08T09:25:32;17.20;99.90
20977;DHT22;10647;51.016;3.720;2023-04-08T09:28:00;17.30;99.90
20977;DHT22;10647;51.016;3.720;2023-04-08T09:30:28;17.10;99.90
20977;DHT22;10647;51.016;3.720;2023-04-08T09:32:57;16.90;99.90
20977;DHT22;10647;51.016;3.720;2023-04-08T09:35:26;16.90;99.90
20977;DHT22;10647;51.016;3.720;2023-04-08T09:37:54;17.10;99.90
20977;DHT22;10647;51.016;3.720;2023-04-08T09:40:23;17.30;99.90
20977;DHT22;10647;51.016;3.720;2023-04-08T09:42:52;17.40;99.90
20977;DHT22;10647;51.016;3.720;2023-04-08T09:45:21;17.30;99.90
20977;DHT22;10647;51.016;3.720;2023-04-08T09:48:11;17.20;99.90
20977;DHT22;10647;51.016;3.720;2023-04-08T09:50:42;17.20;99.90
20977;DHT22;10647;51.016;3.720;2023-04-08T09:53:35;17.50;99.90
20977;DHT22;10647;51.016;3.720;2023-04-08T09:56:06;17.50;99.90
20977;DHT22;10647;51.016;3.720;2023-04-08T09:58:40;17.70;99.90
20977;DHT22;10647;51.016;3.720;2023-04-08T10:01:06;17.80;99.90
20977;DHT22;10647;51.016;3.720;2023-04-08T10:03:36;17.60;99.90
20977;DHT22;10647;51.016;3.720;2023-04-08T10:06:05;17.50;99.90
20977;DHT22;10647;51.016;3.720;2023-04-08T10:08:35;17.30;99.90
20977;DHT22;10647;51.016;3.720;2023-04-08T10:11:03;17.10;99.90
20977;DHT22;10647;51.016;3.720;2023-04-08T10:13:33;16.90;99.90
20977;DHT22;10647;51.016;3.720;2023-04-08T10:16:18;16.70;99.90
20977;DHT22;10647;51.016;3.720;2023-04-08T10:18:50;16.50;99.90
20977;DHT22;10647;51.016;3.720;2023-04-08T10:24:24;16.30;99.90
20977;DHT22;10647;51.016;3.720;2023-04-08T10:26:51;16.60;99.90
20977;DHT22;10647;51.016;3.720;2023-04-08T10:29:28;16.90;99.90
20977;DHT22;10647;51.016;3.720;2023-04-08T10:34:50;17.10;99.90
20977;DHT22;10647;51.016;3.720;2023-04-08T10:37:08;17.40;99.90
20977;DHT22;10647;51.016;3.720;2023-04-08T10:39:36;17.70;99.90
20977;DHT22;10647;51.016;3.720;2023-04-08T10:42:07;17.90;99.90
20977;DHT22;10647;51.016;3.720;2023-04-08T10:44:34;18.00;99.90
20977;DHT22;10647;51.016;3.720;2023-04-08T10:47:02;18.30;99.90
20977;DHT22;10647;51.016;3.720;2023-04-08T10:49:35;18.60;99.90
20977;DHT22;10647;51.016;3.720;2023-04-08T10:52:07;18.90;99.90
20977;DHT22;10647;51.016;3.720;2023-04-08T10:54:35;19.30;99.90
20977;DHT22;10647;51.016;3.720;2023-04-08T10:57:04;19.60;99.90
20977;DHT22;10647;51.016;3.720;2023-04-08T10:59:31;19.70;99.90
20977;DHT22;10647;51.016;3.720;2023-04-08T11:01:59;20.00;99.90
20977;DHT22;10647;51.016;3.720;2023-04-08T11:04:27;20.30;99.90
20977;DHT22;10647;51.016;3.720;2023-04-08T11:06:55;20.60;99.90
20977;DHT22;10647;51.016;3.720;2023-04-08T11:09:23;20.80;99.90
20977;DHT22;10647;51.016;3.720;2023-04-08T11:11:51;21.10;99.90
20977;DHT22;10647;51.016;3.720;2023-04-08T11:14:19;21.20;99.90
20977;DHT22;10647;51.016;3.720;2023-04-08T11:16:49;20.90;99.90
20977;DHT22;10647;51.016;3.720;2023-04-08T11:19:17;20.90;99.90
20977;DHT22;10647;51.016;3.720;2023-04-08T11:21:46;20.90;99.90
20977;DHT22;10647;51.016;3.720;2023-04-08T11:24:13;21.00;99.90
20977;DHT22;10647;51.016;3.720;2023-04-08T11:26:42;21.30;99.90
20977;DHT22;10647;51.016;3.720;2023-04-08T11:29:11;21.30;99.90
20977;DHT22;10647;51.016;3.720;2023-04-08T11:31:42;21.30;99.90
20977;DHT22;10647;51.016;3.720;2023-04-08T11:34:10;21.00;99.90
20977;DHT22;10647;51.016;3.720;2023-04-08T11:36:40;20.80;99.90
20977;DHT22;10647;51.016;3.720;2023-04-08T11:39:09;20.90;99.90
20977;DHT22;10647;51.016;3.720;2023-04-08T11:41:38;20.80;99.90
20977;DHT22;10647;51.016;3.720;2023-04-08T11:44:06;20.70;99.90
20977;DHT22;10647;51.016;3.720;2023-04-08T11:46:34;20.60;99.90
20977;DHT22;10647;51.016;3.720;2023-04-08T11:49:04;20.70;99.90
20977;DHT22;10647;51.016;3.720;2023-04-08T11:51:34;21.00;99.90
20977;DHT22;10647;51.016;3.720;2023-04-08T11:54:04;20.60;99.90
20977;DHT22;10647;51.016;3.720;2023-04-08T11:56:45;20.60;99.90
20977;DHT22;10647;51.016;3.720;2023-04-08T11:59:13;20.90;99.90
20977;DHT22;10647;51.016;3.720;2023-04-08T12:01:41;21.20;99.90
20977;DHT22;10647;51.016;3.720;2023-04-08T12:04:10;21.30;99.90
20977;DHT22;10647;51.016;3.720;2023-04-08T12:06:37;21.10;99.90
20977;DHT22;10647;51.016;3.720;2023-04-08T12:09:06;21.00;99.90
20977;DHT22;10647;51.016;3.720;2023-04-08T12:11:34;21.10;99.90
20977;DHT22;10647;51.016;3.720;2023-04-08T12:14:02;21.30;99.90
20977;DHT22;10647;51.016;3.720;2023-04-08T12:16:30;21.40;99.90
20977;DHT22;10647;51.016;3.720;2023-04-08T12:18:57;21.50;99.90
20977;DHT22;10647;51.016;3.720;2023-04-08T12:21:25;21.60;99.90
20977;DHT22;10647;51.016;3.720;2023-04-08T12:23:53;21.70;99.80
20977;DHT22;10647;51.016;3.720;2023-04-08T12:26:21;21.80;99.50
20977;DHT22;10647;51.016;3.720;2023-04-08T12:28:48;21.90;99.10
20977;DHT22;10647;51.016;3.720;2023-04-08T12:31:16;21.90;98.90
20977;DHT22;10647;51.016;3.720;2023-04-08T12:33:44;22.00;98.70
20977;DHT22;10647;51.016;3.720;2023-04-08T12:36:11;22.00;98.30
20977;DHT22;10647;51.016;3.720;2023-04-08T12:38:39;22.10;98.20
20977;DHT22;10647;51.016;3.720;2023-04-08T12:41:06;22.30;97.70
20977;DHT22;10647;51.016;3.720;2023-04-08T12:43:34;22.30;97.00
20977;DHT22;10647;51.016;3.720;2023-04-08T12:46:01;22.70;96.90
20977;DHT22;10647;51.016;3.720;2023-04-08T12:48:29;23.00;96.00
20977;DHT22;10647;51.016;3.720;2023-04-08T12:50:57;23.20;95.60
20977;DHT22;10647;51.016;3.720;2023-04-08T12:53:25;23.50;95.20
20977;DHT22;10647;51.016;3.720;2023-04-08T12:55:52;23.80;94.40
20977;DHT22;10647;51.016;3.720;2023-04-08T12:58:23;23.90;93.80
20977;DHT22;10647;51.016;3.720;2023-04-08T13:01:10;23.70;93.40
20977;DHT22;10647;51.016;3.720;2023-04-08T13:03:38;23.50;93.20
20977;DHT22;10647;51.016;3.720;2023-04-08T13:06:06;23.60;93.10
20977;DHT22;10647;51.016;3.720;2023-04-08T13:08:33;23.90;93.20
20977;DHT22;10647;51.016;3.720;2023-04-08T13:11:01;24.40;92.50
20977;DHT22;10647;51.016;3.720;2023-04-08T13:13:29;24.50;91.90
20977;DHT22;10647;51.016;3.720;2023-04-08T13:15:56;24.40;91.70
20977;DHT22;10647;51.016;3.720;2023-04-08T13:18:24;25.40;91.30
20977;DHT22;10647;51.016;3.720;2023-04-08T13:20:52;26.60;90.40
20977;DHT22;10647;51.016;3.720;2023-04-08T13:23:20;26.50;88.00
20977;DHT22;10647;51.016;3.720;2023-04-08T13:25:48;26.10;87.10
20977;DHT22;10647;51.016;3.720;2023-04-08T13:28:15;27.00;87.50
20977;DHT22;10647;51.016;3.720;2023-04-08T13:30:43;29.20;84.10
20977;DHT22;10647;51.016;3.720;2023-04-08T13:33:10;31.80;77.10
20977;DHT22;10647;51.016;3.720;2023-04-08T13:35:38;31.40;73.90
20977;DHT22;10647;51.016;3.720;2023-04-08T13:38:05;32.70;70.70
20977;DHT22;10647;51.016;3.720;2023-04-08T13:40:33;33.90;66.10
20977;DHT22;10647;51.016;3.720;2023-04-08T13:43:01;31.10;65.40
20977;DHT22;10647;51.016;3.720;2023-04-08T13:45:29;29.00;67.60
20977;DHT22;10647;51.016;3.720;2023-04-08T13:47:56;27.50;70.60
20977;DHT22;10647;51.016;3.720;2023-04-08T13:50:25;26.50;72.00
20977;DHT22;10647;51.016;3.720;2023-04-08T13:52:52;25.70;73.90
20977;DHT22;10647;51.016;3.720;2023-04-08T13:55:20;24.80;74.90
20977;DHT22;10647;51.016;3.720;2023-04-08T13:57:47;23.80;77.30
20977;DHT22;10647;51.016;3.720;2023-04-08T14:00:15;23.10;79.30
20977;DHT22;10647;51.016;3.720;2023-04-08T14:02:43;22.80;80.20
20977;DHT22;10647;51.016;3.720;2023-04-08T14:05:10;22.80;80.70
20977;DHT22;10647;51.016;3.720;2023-04-08T14:07:38;22.80;81.20
20977;DHT22;10647;51.016;3.720;2023-04-08T14:10:06;22.80;80.40
20977;DHT22;10647;51.016;3.720;2023-04-08T14:12:33;23.00;80.90
20977;DHT22;10647;51.016;3.720;2023-04-08T14:15:01;23.10;80.80
20977;DHT22;10647;51.016;3.720;2023-04-08T14:17:29;22.90;80.80
20977;DHT22;10647;51.016;3.720;2023-04-08T14:19:56;22.90;81.40
20977;DHT22;10647;51.016;3.720;2023-04-08T14:22:25;22.50;81.60
20977;DHT22;10647;51.016;3.720;2023-04-08T14:24:52;22.00;82.20
20977;DHT22;10647;51.016;3.720;2023-04-08T14:27:21;21.60;83.60
20977;DHT22;10647;51.016;3.720;2023-04-08T14:29:48;21.30;84.40
20977;DHT22;10647;51.016;3.720;2023-04-08T14:32:16;21.10;85.10
20977;DHT22;10647;51.016;3.720;2023-04-08T14:34:43;20.90;86.40
20977;DHT22;10647;51.016;3.720;2023-04-08T14:37:11;20.80;86.10
20977;DHT22;10647;51.016;3.720;2023-04-08T14:39:39;20.80;86.40
20977;DHT22;10647;51.016;3.720;2023-04-08T14:42:06;20.80;86.50
20977;DHT22;10647;51.016;3.720;2023-04-08T14:44:34;20.80;87.20
20977;DHT22;10647;51.016;3.720;2023-04-08T14:47:01;20.70;87.60
20977;DHT22;10647;51.016;3.720;2023-04-08T14:49:30;20.70;87.90
20977;DHT22;10647;51.016;3.720;2023-04-08T14:51:58;20.60;87.80
20977;DHT22;10647;51.016;3.720;2023-04-08T14:54:26;20.40;88.10
20977;DHT22;10647;51.016;3.720;2023-04-08T14:56:53;20.00;87.90
20977;DHT22;10647;51.016;3.720;2023-04-08T14:59:21;19.90;88.40
20977;DHT22;10647;51.016;3.720;2023-04-08T15:01:49;22.60;87.10
20977;DHT22;10647;51.016;3.720;2023-04-08T15:04:16;24.90;83.00
20977;DHT22;10647;51.016;3.720;2023-04-08T15:06:44;26.10;80.30
20977;DHT22;10647;51.016;3.720;2023-04-08T15:09:11;27.40;78.00
20977;DHT22;10647;51.016;3.720;2023-04-08T15:11:39;27.80;75.80
20977;DHT22;10647;51.016;3.720;2023-04-08T15:14:06;28.10;73.40
20977;DHT22;10647;51.016;3.720;2023-04-08T15:16:34;28.50;71.60
20977;DHT22;10647;51.016;3.720;2023-04-08T15:19:01;28.50;71.20
20977;DHT22;10647;51.016;3.720;2023-04-08T15:21:30;27.40;72.00
20977;DHT22;10647;51.016;3.720;2023-04-08T15:23:57;26.20;73.60
20977;DHT22;10647;51.016;3.720;2023-04-08T15:26:44;25.60;75.50
20977;DHT22;10647;51.016;3.720;2023-04-08T15:29:12;25.30;76.80
20977;DHT22;10647;51.016;3.720;2023-04-08T15:31:39;24.70;76.80
20977;DHT22;10647;51.016;3.720;2023-04-08T15:34:07;23.90;77.80
20977;DHT22;10647;51.016;3.720;2023-04-08T15:36:34;23.00;79.00
20977;DHT22;10647;51.016;3.720;2023-04-08T15:39:03;22.20;81.00
20977;DHT22;10647;51.016;3.720;2023-04-08T15:41:31;21.80;82.50
20977;DHT22;10647;51.016;3.720;2023-04-08T15:43:59;21.20;83.40
20977;DHT22;10647;51.016;3.720;2023-04-08T15:46:27;20.80;84.10
20977;DHT22;10647;51.016;3.720;2023-04-08T15:48:54;20.60;84.80
20977;DHT22;10647;51.016;3.720;2023-04-08T15:51:22;20.60;84.90
20977;DHT22;10647;51.016;3.720;2023-04-08T15:53:50;20.60;85.10
20977;DHT22;10647;51.016;3.720;2023-04-08T15:56:17;20.80;85.30
20977;DHT22;10647;51.016;3.720;2023-04-08T15:58:45;21.20;85.20
20977;DHT22;10647;51.016;3.720;2023-04-08T16:01:13;21.90;84.60
20977;DHT22;10647;51.016;3.720;2023-04-08T16:03:42;22.40;83.50